Reydell, Arkansas
Current Conditions -  °F | °C
As of 3:53 PM on Monday 24 Nov 2014 (Local Time) from KPBF Reporting Station
Clear Clear  
Wind Chill: 57°   Ceiling: Unl
Heat Index: 57°   Visibility: 10mi
Dew Point: 29°   Wind: 9mph
Humidity: 34%   Direction: 240°WSW
Pressure: 29.96"   Gusts: NA
Location:  34.16°N, 91.57°W
Report Text: KPBF 242153Z AUTO 24008KT 10SM CLR 14/M02 A2996 RMK AO2 SLP146 T01391017
Loading
Personal Weather Stations






























Interactive Weather Map New forecast layout! Learn more

10-Day Weather Forecast

Advertisements
Track Severe Weather on mobile